Time;durP1;ratioP1;P1;durP2;ratioP2;P2;SDS_P1;SDS_P2;PMS_P1;PMS_P2;Temp;Humidity;BMP_temperature;BMP_pressure;BME280_temperature;BME280_humidity;BME280_pressure;Samples;Min_cycle;Max_cycle;Signal;HPM_P1;HPM_P2
2023/09/30 00:01:44;;;;;;;18.07;10.27;;;;;;;-143.21;60.10;72294.28;6333655;22;20160;-79
2023/09/30 00:04:12;;;;;;;20.37;10.70;;;;;;;-143.21;59.90;72294.28;6334086;22;20596;-79
2023/09/30 00:06:39;;;;;;;19.10;10.90;;;;;;;-143.21;60.18;72296.28;6334182;22;20170;-79
2023/09/30 00:09:06;;;;;;;21.13;9.03;;;;;;;-143.21;59.16;72290.31;6335792;22;20248;-79
2023/09/30 00:11:33;;;;;;;15.43;9.27;;;;;;;-143.21;59.25;72292.31;6337172;22;20167;-79
2023/09/30 00:14:00;;;;;;;16.63;9.17;;;;;;;-143.21;59.77;72294.28;6345402;22;20163;-78
2023/09/30 00:16:26;;;;;;;17.77;8.43;;;;;;;-143.21;59.27;72302.22;6332824;22;20185;-79
2023/09/30 00:18:54;;;;;;;20.13;9.33;;;;;;;-143.21;59.98;72302.22;6333697;22;20170;-78
2023/09/30 00:21:22;;;;;;;15.40;8.87;;;;;;;-143.21;59.63;72300.25;6336489;22;20225;-78
2023/09/30 00:23:49;;;;;;;21.40;9.00;;;;;;;-143.21;59.47;72296.28;6343576;22;20171;-79
2023/09/30 00:26:16;;;;;;;23.07;8.47;;;;;;;-143.21;58.77;72294.28;6337348;22;20344;-79
2023/09/30 00:28:43;;;;;;;15.93;8.80;;;;;;;-143.21;60.26;72290.31;6333145;22;21012;-79
2023/09/30 00:31:10;;;;;;;20.07;9.40;;;;;;;-143.21;60.32;72292.31;6335034;22;20171;-78
2023/09/30 00:33:38;;;;;;;19.87;9.10;;;;;;;-143.21;59.90;72280.41;6333953;22;20171;-79
2023/09/30 00:36:09;;;;;;;19.30;9.33;;;;;;;-143.21;59.98;72274.47;6333356;22;20171;-79
2023/09/30 00:38:37;;;;;;;17.00;9.10;;;;;;;-143.21;60.13;72268.50;6333454;22;20171;-79
2023/09/30 00:41:04;;;;;;;20.97;8.70;;;;;;;-143.21;59.57;72270.50;6333266;22;20875;-79
2023/09/30 00:43:31;;;;;;;17.63;8.47;;;;;;;-143.21;59.16;72268.50;6334083;22;20167;-79
2023/09/30 00:46:06;;;;;;;14.40;7.50;;;;;;;-143.21;58.01;72268.50;6333846;22;20503;-78
2023/09/30 00:48:34;;;;;;;15.57;7.73;;;;;;;-143.21;58.03;72280.41;6332849;22;20175;-79
2023/09/30 00:51:01;;;;;;;19.30;7.07;;;;;;;-143.21;57.56;72270.50;6333343;22;20213;-78
2023/09/30 00:53:29;;;;;;;15.07;8.10;;;;;;;-143.21;57.36;72274.47;6334150;22;20611;-79
2023/09/30 00:55:59;;;;;;;18.10;7.83;;;;;;;-143.21;57.57;72280.41;6334534;22;20182;-79
2023/09/30 00:58:28;;;;;;;18.53;7.70;;;;;;;-143.21;57.57;72272.47;6333172;22;20155;-79
2023/09/30 01:00:57;;;;;;;14.77;7.90;;;;;;;-143.21;57.49;72272.47;6333799;22;20164;-79
2023/09/30 01:03:24;;;;;;;21.43;8.17;;;;;;;-143.21;58.78;72276.44;6333230;22;20171;-79
2023/09/30 01:05:51;;;;;;;13.30;7.90;;;;;;;-143.21;58.65;72260.56;6334678;22;20163;-79
2023/09/30 01:08:19;;;;;;;17.27;7.97;;;;;;;-143.21;57.87;72266.53;6332345;22;20191;-79
2023/09/30 01:10:46;;;;;;;21.30;8.10;;;;;;;-143.21;57.74;72260.56;6333209;22;20202;-79
2023/09/30 01:13:14;;;;;;;15.97;7.60;;;;;;;-143.21;57.44;72250.66;6333703;22;20183;-79
2023/09/30 01:15:41;;;;;;;15.13;7.60;;;;;;;-143.21;57.46;72258.59;6334116;22;20164;-79
2023/09/30 01:18:08;;;;;;;19.50;7.50;;;;;;;-143.21;57.09;72264.53;6334758;22;20244;-79
2023/09/30 01:20:35;;;;;;;12.97;6.77;;;;;;;-143.21;57.90;72276.44;6334332;22;20171;-79
2023/09/30 01:23:04;;;;;;;14.13;7.77;;;;;;;-143.21;58.26;72278.41;6340929;22;20201;-79
2023/09/30 01:25:31;;;;;;;16.03;7.83;;;;;;;-143.21;58.12;72286.34;6333840;22;20171;-79
2023/09/30 01:27:59;;;;;;;19.23;8.20;;;;;;;-143.21;57.95;72278.41;6335231;22;20187;-80
2023/09/30 01:30:26;;;;;;;16.30;7.33;;;;;;;-143.21;58.20;72286.34;6333822;22;20163;-79
2023/09/30 01:32:53;;;;;;;15.50;7.67;;;;;;;-143.21;59.81;72276.44;6336751;22;20447;-79
2023/09/30 01:35:21;;;;;;;15.23;7.77;;;;;;;-143.21;58.71;72268.50;6338584;22;20163;-80
2023/09/30 01:37:48;;;;;;;15.50;7.63;;;;;;;-143.21;59.94;72262.56;6333842;22;20159;-79
2023/09/30 01:40:18;;;;;;;19.83;7.63;;;;;;;-143.21;57.98;72252.63;6334453;22;20171;-80
2023/09/30 01:42:45;;;;;;;17.07;8.27;;;;;;;-143.21;59.19;72252.63;6332455;22;20221;-79
2023/09/30 01:45:12;;;;;;;16.57;7.77;;;;;;;-143.21;59.78;72250.66;6333446;22;20213;-80
2023/09/30 01:47:38;;;;;;;23.90;8.20;;;;;;;-143.21;59.43;72240.75;6332980;22;20167;-80
2023/09/30 01:50:06;;;;;;;14.47;7.60;;;;;;;-143.21;59.58;72244.72;6335024;22;20630;-81
2023/09/30 01:52:33;;;;;;;14.37;7.97;;;;;;;-143.21;59.95;72238.75;6332804;22;20202;-79
2023/09/30 01:55:00;;;;;;;14.07;7.57;;;;;;;-143.21;58.33;72236.78;6333111;22;20163;-79
2023/09/30 01:57:28;;;;;;;16.23;8.10;;;;;;;-143.21;59.75;72232.81;6332521;22;20178;-79
2023/09/30 01:59:55;;;;;;;18.83;8.20;;;;;;;-143.21;59.44;72226.84;6334291;22;20171;-80
2023/09/30 02:02:21;;;;;;;14.23;7.93;;;;;;;-143.21;59.84;72222.91;6334049;22;20618;-80
2023/09/30 02:04:48;;;;;;;11.43;8.27;;;;;;;-143.21;60.30;72226.84;6333506;22;20167;-80
2023/09/30 02:07:15;;;;;;;19.03;8.20;;;;;;;-143.21;59.99;72232.81;6333139;22;20163;-80
2023/09/30 02:09:43;;;;;;;15.10;8.10;;;;;;;-143.21;59.97;72234.78;6333592;22;20198;-80
2023/09/30 02:12:10;;;;;;;15.70;8.37;;;;;;;-143.21;60.03;72224.88;6334999;22;20649;-80
2023/09/30 02:14:51;;;;;;;15.83;8.40;;;;;;;-143.21;60.17;72230.81;6333200;22;20203;-82
2023/09/30 02:17:18;;;;;;;21.67;8.70;;;;;;;-143.21;59.96;72226.84;6332614;22;20274;-79
2023/09/30 02:19:45;;;;;;;17.13;7.87;;;;;;;-143.21;60.10;72224.88;6332652;22;20206;-78
2023/09/30 02:22:12;;;;;;;26.40;9.23;;;;;;;-143.21;60.18;72220.91;6333336;22;20164;-79
2023/09/30 02:24:40;;;;;;;17.30;8.77;;;;;;;-143.21;60.00;72230.81;6334103;22;20164;-78
2023/09/30 02:27:06;;;;;;;19.43;8.97;;;;;;;-143.21;60.50;72234.78;6333071;22;20215;-78
2023/09/30 02:29:33;;;;;;;19.30;9.13;;;;;;;-143.21;60.83;72248.66;6332531;22;20206;-78
2023/09/30 02:32:02;;;;;;;19.73;9.30;;;;;;;-143.21;60.68;72252.63;6334196;22;20179;-79
2023/09/30 02:34:31;;;;;;;21.37;9.43;;;;;;;-143.21;60.57;72252.63;6336238;22;20245;-80
2023/09/30 02:36:59;;;;;;;19.03;9.00;;;;;;;-143.21;60.16;72252.63;6331382;22;20175;-80
2023/09/30 02:39:27;;;;;;;18.47;9.50;;;;;;;-143.21;60.26;72252.63;6331858;22;20167;-80
2023/09/30 02:41:54;;;;;;;21.50;9.57;;;;;;;-143.21;60.54;72264.53;6333147;22;20205;-80
2023/09/30 02:44:20;;;;;;;20.87;9.93;;;;;;;-143.21;60.94;72276.44;6339351;22;20568;-80
2023/09/30 02:46:47;;;;;;;25.00;9.57;;;;;;;-143.21;60.89;72278.41;6333947;22;20510;-80
2023/09/30 02:49:15;;;;;;;17.67;9.57;;;;;;;-143.21;60.83;72280.41;6332919;22;20527;-80
2023/09/30 02:51:42;;;;;;;17.23;9.57;;;;;;;-143.21;60.26;72276.44;6333307;22;20634;-80
2023/09/30 02:54:09;;;;;;;19.83;10.30;;;;;;;-143.21;60.21;72280.41;6332867;22;20373;-80
2023/09/30 02:56:36;;;;;;;20.07;11.20;;;;;;;-143.21;60.23;72280.41;6335014;22;20174;-81
2023/09/30 02:59:03;;;;;;;19.43;11.33;;;;;;;-143.21;60.55;72294.28;6333115;22;20585;-80
2023/09/30 03:01:30;;;;;;;26.10;11.43;;;;;;;-143.21;60.76;72300.25;6332446;22;20191;-80
2023/09/30 03:03:57;;;;;;;23.17;10.67;;;;;;;-143.21;61.04;72304.19;6332675;22;20661;-79
2023/09/30 03:06:25;;;;;;;22.70;11.03;;;;;;;-143.21;61.31;72314.13;6332692;22;20623;-79
2023/09/30 03:08:52;;;;;;;20.43;10.90;;;;;;;-143.21;61.73;72328.00;6333079;22;20191;-80
2023/09/30 03:11:20;;;;;;;19.53;11.10;;;;;;;-143.21;61.79;72333.94;6332053;22;20190;-79
2023/09/30 03:13:47;;;;;;;21.60;12.10;;;;;;;-143.21;61.84;72339.91;6332265;22;20494;-79
2023/09/30 03:16:14;;;;;;;21.77;11.77;;;;;;;-143.21;61.99;72341.88;6331674;22;20211;-79
2023/09/30 03:18:44;;;;;;;21.80;11.37;;;;;;;-143.21;61.65;72341.88;6333425;22;20665;-78
2023/09/30 03:21:15;;;;;;;21.80;12.30;;;;;;;-143.21;61.34;72343.88;6332086;22;20164;-78
2023/09/30 03:23:44;;;;;;;17.73;11.77;;;;;;;-143.21;61.63;72345.84;6332155;22;20152;-79
2023/09/30 03:26:11;;;;;;;24.27;13.30;;;;;;;-143.21;61.65;72351.78;6332034;22;20195;-79
2023/09/30 03:28:38;;;;;;;26.20;13.07;;;;;;;-143.21;62.23;72351.78;6332941;22;20191;-79
2023/09/30 03:31:05;;;;;;;19.00;12.33;;;;;;;-143.21;62.25;72355.75;6333109;22;20164;-79
2023/09/30 03:33:33;;;;;;;24.60;13.57;;;;;;;-143.21;62.48;72355.75;6331644;22;20195;-78
2023/09/30 03:36:00;;;;;;;23.43;13.77;;;;;;;-143.21;62.54;72351.78;6331379;22;20510;-79
2023/09/30 03:38:27;;;;;;;35.70;13.33;;;;;;;-143.21;62.54;72351.78;6331945;22;20589;-78
2023/09/30 03:40:56;;;;;;;25.70;12.07;;;;;;;-143.21;62.49;72347.84;6335120;22;20220;-78
2023/09/30 03:43:24;;;;;;;22.90;12.50;;;;;;;-143.21;62.61;72355.75;6342914;22;20164;-78
2023/09/30 03:45:53;;;;;;;26.97;13.47;;;;;;;-143.21;63.03;72361.72;6332653;22;20211;-79
2023/09/30 03:48:20;;;;;;;27.27;13.97;;;;;;;-143.21;63.47;72365.69;6330848;22;20187;-78
2023/09/30 03:50:47;;;;;;;23.73;13.50;;;;;;;-143.21;63.17;72359.72;6334188;22;20618;-78
2023/09/30 03:53:14;;;;;;;23.20;13.10;;;;;;;-143.21;63.15;72371.63;6337653;22;20170;-77
2023/09/30 03:55:42;;;;;;;24.00;13.27;;;;;;;-143.21;63.30;72373.63;6332328;22;20667;-78
2023/09/30 03:58:10;;;;;;;27.13;12.60;;;;;;;-143.21;63.37;72383.53;6331823;22;20168;-78
2023/09/30 04:00:37;;;;;;;25.87;13.83;;;;;;;-143.21;63.35;72381.53;6331706;22;20171;-78
2023/09/30 04:03:04;;;;;;;20.13;12.90;;;;;;;-143.21;64.05;72383.53;6333801;22;20884;-80
2023/09/30 04:05:36;;;;;;;26.83;12.90;;;;;;;-143.21;64.95;72405.34;6330492;22;20171;-79
2023/09/30 04:08:05;;;;;;;24.70;12.70;;;;;;;-143.21;64.71;72397.41;6330420;22;20164;-80
2023/09/30 04:10:31;;;;;;;37.13;16.13;;;;;;;-143.21;64.41;72397.41;6331890;22;20172;-78
2023/09/30 04:12:58;;;;;;;35.93;17.80;;;;;;;-143.21;64.28;72391.47;6332717;22;20635;-79
2023/09/30 04:15:26;;;;;;;37.37;19.40;;;;;;;-143.21;63.55;72379.56;6333204;22;20183;-79
2023/09/30 04:17:53;;;;;;;38.90;19.83;;;;;;;-143.21;63.70;72389.47;6331544;22;20192;-79
2023/09/30 04:20:23;;;;;;;33.43;17.30;;;;;;;-143.21;63.77;72391.47;6332792;22;20202;-79
2023/09/30 04:22:50;;;;;;;35.50;18.40;;;;;;;-143.21;63.69;72387.50;6333003;22;20223;-79
2023/09/30 04:25:18;;;;;;;29.80;17.30;;;;;;;-143.21;63.51;72387.50;6336338;22;20168;-80
2023/09/30 04:27:47;;;;;;;30.73;16.40;;;;;;;-143.21;63.78;72387.50;6333291;22;20185;-80
2023/09/30 04:30:15;;;;;;;33.67;17.00;;;;;;;-143.21;64.02;72403.34;6332947;22;20214;-79
2023/09/30 04:32:44;;;;;;;32.67;17.23;;;;;;;-143.21;64.08;72413.28;6333854;22;20198;-80
2023/09/30 04:35:11;;;;;;;35.30;17.97;;;;;;;-143.21;63.96;72405.34;6334069;22;20197;-79
2023/09/30 04:37:39;;;;;;;37.90;18.23;;;;;;;-143.21;63.80;72413.28;6334516;22;20175;-79
2023/09/30 04:40:15;;;;;;;42.27;18.53;;;;;;;-143.21;64.01;72419.22;6336439;22;20171;-79
2023/09/30 04:42:42;;;;;;;44.03;19.13;;;;;;;-143.21;63.80;72423.19;6336991;22;20216;-79
2023/09/30 04:45:10;;;;;;;36.60;18.60;;;;;;;-143.21;64.01;72425.19;6333244;22;20224;-79
2023/09/30 04:47:38;;;;;;;42.23;19.27;;;;;;;-143.21;64.03;72433.09;6335216;22;20164;-78
2023/09/30 04:50:09;;;;;;;38.23;18.17;;;;;;;-143.21;64.05;72435.09;6336053;22;20191;-78
2023/09/30 04:52:36;;;;;;;40.53;18.40;;;;;;;-143.21;64.12;72447.00;6343515;22;20156;-78
2023/09/30 04:55:04;;;;;;;45.30;19.37;;;;;;;-143.21;64.14;72447.00;6333258;22;20190;-78
2023/09/30 04:57:31;;;;;;;40.03;18.27;;;;;;;-143.21;64.35;72445.00;6332824;22;20237;-77
2023/09/30 04:59:58;;;;;;;35.80;16.93;;;;;;;-143.21;63.84;72445.00;6335377;22;20170;-78
2023/09/30 05:02:26;;;;;;;26.10;14.37;;;;;;;-143.21;63.98;72445.00;6338380;22;20277;-78
2023/09/30 05:04:53;;;;;;;31.47;13.57;;;;;;;-143.21;63.19;72447.00;6341604;22;20159;-78
2023/09/30 05:07:22;;;;;;;29.10;13.67;;;;;;;-143.21;63.34;72448.97;6332605;22;20167;-79
2023/09/30 05:09:49;;;;;;;30.97;14.43;;;;;;;-143.21;63.51;72458.88;6334125;22;20236;-79
2023/09/30 05:12:16;;;;;;;37.50;14.27;;;;;;;-143.21;62.78;72450.97;6331367;22;20170;-80
2023/09/30 05:14:48;;;;;;;26.77;12.93;;;;;;;-143.21;62.43;72439.06;6331455;22;20159;-80
2023/09/30 05:17:17;;;;;;;29.67;13.10;;;;;;;-143.21;62.46;72448.97;6331862;22;20191;-80
2023/09/30 05:19:46;;;;;;;25.67;13.63;;;;;;;-143.21;62.38;72445.00;6330200;22;20166;-78
2023/09/30 05:22:21;;;;;;;25.37;13.10;;;;;;;-143.21;62.23;72439.06;6332830;22;20171;-79
2023/09/30 05:24:56;;;;;;;22.93;13.13;;;;;;;-143.21;62.00;72441.03;6331285;22;20166;-79
2023/09/30 05:27:28;;;;;;;25.83;11.97;;;;;;;-143.21;62.36;72441.03;6304674;22;20665;-80
2023/09/30 05:29:56;;;;;;;27.30;11.97;;;;;;;-143.21;62.54;72445.00;6331953;22;20195;-79
2023/09/30 05:32:39;;;;;;;24.37;12.00;;;;;;;-143.21;62.02;72441.03;6330287;22;20171;-79
2023/09/30 05:35:12;;;;;;;26.30;12.67;;;;;;;-143.21;61.96;72443.03;6331256;22;20156;-80
2023/09/30 05:37:58;;;;;;;28.47;12.37;;;;;;;-143.21;62.34;72445.00;6331824;22;20642;-80
2023/09/30 05:40:34;;;;;;;35.63;12.13;;;;;;;-143.21;62.10;72447.00;6320494;22;21025;-82
2023/09/30 05:43:01;;;;;;;29.87;11.80;;;;;;;-143.21;62.49;72450.97;6323153;22;20155;-79
2023/09/30 05:45:35;;;;;;;29.27;13.13;;;;;;;-143.21;62.35;72448.97;6331330;22;20857;-81
2023/09/30 05:52:00;;;;;;;19.87;10.90;;;;;;;-143.21;61.71;72425.19;6329162;22;20206;-81
2023/09/30 05:54:28;;;;;;;22.47;10.53;;;;;;;-143.21;61.36;72419.22;6322307;22;20167;-80
2023/09/30 05:56:56;;;;;;;21.47;10.27;;;;;;;-143.21;61.44;72403.34;6331825;22;20657;-80
2023/09/30 05:59:24;;;;;;;24.07;10.63;;;;;;;-143.21;60.65;72393.44;6332141;22;20167;-80
2023/09/30 06:01:51;;;;;;;22.03;11.13;;;;;;;-143.21;60.43;72387.50;6338937;22;20174;-79
2023/09/30 06:04:18;;;;;;;22.90;10.87;;;;;;;-143.21;60.49;72389.47;6328663;22;20179;-79
2023/09/30 06:06:45;;;;;;;20.60;10.33;;;;;;;-143.21;60.67;72391.47;6332111;22;20607;-80
2023/09/30 06:09:12;;;;;;;20.40;9.40;;;;;;;-143.21;60.48;72383.53;6331582;22;20192;-80
2023/09/30 06:11:41;;;;;;;22.33;10.20;;;;;;;-143.21;60.58;72381.53;6337817;22;20172;-80
2023/09/30 06:14:09;;;;;;;25.87;10.27;;;;;;;-143.21;60.27;72379.56;6331586;22;20171;-80
2023/09/30 06:16:36;;;;;;;19.97;10.47;;;;;;;-143.21;60.32;72377.56;6329625;22;20171;-79
2023/09/30 06:19:04;;;;;;;19.70;9.87;;;;;;;-143.21;60.04;72375.59;6330862;22;20202;-81
2023/09/30 06:21:34;;;;;;;20.40;9.67;;;;;;;-143.21;59.87;72363.69;6330461;22;20250;-81
2023/09/30 06:24:01;;;;;;;23.57;9.80;;;;;;;-143.21;59.76;72357.75;6331472;22;20160;-84
2023/09/30 06:26:28;;;;;;;18.53;10.10;;;;;;;-143.21;59.42;72351.78;6331364;22;20178;-82
2023/09/30 06:28:56;;;;;;;16.03;10.00;;;;;;;-143.21;59.78;72367.66;6333661;22;20170;-81
2023/09/30 06:31:24;;;;;;;23.53;10.50;;;;;;;-143.21;59.79;72353.78;6331759;22;20178;-81
2023/09/30 06:33:51;;;;;;;23.47;11.43;;;;;;;-143.21;59.53;72349.81;6330836;22;20163;-81
2023/09/30 06:36:17;;;;;;;25.27;11.63;;;;;;;-143.21;59.00;72339.91;6328720;22;20669;-79
2023/09/30 06:38:48;;;;;;;27.00;11.87;;;;;;;-143.21;58.79;72328.00;6329988;22;20520;-77
2023/09/30 06:41:17;;;;;;;29.03;11.63;;;;;;;-143.21;58.88;72328.00;6331247;22;20148;-77
2023/09/30 06:43:44;;;;;;;29.30;11.93;;;;;;;-143.21;58.64;72326.00;6329451;22;20194;-79
2023/09/30 06:46:11;;;;;;;28.25;11.15;;;;;;;-143.21;59.10;72328.00;6331834;22;20224;-82
2023/09/30 06:48:40;;;;;;;26.00;10.93;;;;;;;-143.21;59.14;72322.06;6332001;22;20172;-81
2023/09/30 06:51:07;;;;;;;22.27;10.10;;;;;;;-143.21;58.67;72312.13;6333995;22;20191;-84
2023/09/30 06:53:34;;;;;;;23.13;9.17;;;;;;;-143.21;58.11;72308.16;6334200;22;20160;-82
2023/09/30 06:56:01;;;;;;;22.97;9.17;;;;;;;-143.21;57.72;72296.28;6333613;22;20186;-83
2023/09/30 06:58:28;;;;;;;20.52;9.43;;;;;;;-143.21;57.32;72292.31;6332148;22;20156;-82
2023/09/30 07:00:55;;;;;;;23.92;9.88;;;;;;;-143.21;57.06;72280.41;6332035;22;20258;-83
2023/09/30 07:03:22;;;;;;;21.23;11.48;;;;;;;-143.21;56.33;72266.53;6332875;22;20174;-83
2023/09/30 07:05:51;;;;;;;26.77;13.10;;;;;;;-143.21;56.16;72264.53;6333321;22;20174;-83
2023/09/30 07:08:18;;;;;;;29.60;12.60;;;;;;;-143.21;56.08;72252.63;6344984;22;20171;-83
2023/09/30 07:10:49;;;;;;;27.90;12.00;;;;;;;-143.21;55.99;72244.72;6343977;22;20199;-81
2023/09/30 07:13:16;;;;;;;23.83;10.90;;;;;;;-143.21;55.58;72234.78;6335326;22;20158;-86
2023/09/30 07:15:43;;;;;;;20.00;10.77;;;;;;;-143.21;55.37;72220.91;6334244;22;20163;-81
2023/09/30 07:18:11;;;;;;;16.13;9.90;;;;;;;-143.21;55.17;72212.97;6333967;22;20197;-81
2023/09/30 07:20:38;;;;;;;18.20;9.20;;;;;;;-143.21;55.27;72205.03;6344958;22;20167;-82
2023/09/30 07:23:08;;;;;;;16.52;8.40;;;;;;;-143.21;54.40;72197.13;6336975;22;20240;-83
2023/09/30 07:25:35;;;;;;;17.20;8.63;;;;;;;-143.21;53.80;72187.19;6333893;22;20791;-80
2023/09/30 07:28:02;;;;;;;22.30;8.60;;;;;;;-143.21;53.70;72179.25;6331964;22;20171;-81
2023/09/30 07:30:29;;;;;;;18.73;7.90;;;;;;;-143.21;52.91;72165.38;6332286;22;20673;-82
2023/09/30 07:32:55;;;;;;;14.57;7.18;;;;;;;-143.21;51.84;72163.41;6332619;22;20166;-81
2023/09/30 07:35:22;;;;;;;20.75;7.38;;;;;;;-143.21;51.73;72153.47;6334211;22;20168;-82
2023/09/30 07:37:51;;;;;;;16.58;6.95;;;;;;;-143.21;51.02;72143.56;6331628;22;20164;-81
2023/09/30 07:40:21;;;;;;;18.90;6.78;;;;;;;-143.21;50.86;72133.66;6331524;22;20170;-80
2023/09/30 07:42:54;;;;;;;10.27;6.95;;;;;;;-143.21;50.67;72125.72;6331229;22;20729;-86
2023/09/30 07:45:21;;;;;;;19.77;7.35;;;;;;;-143.21;50.72;72117.78;6329709;22;20968;-81
2023/09/30 07:47:49;;;;;;;25.75;7.28;;;;;;;-143.21;50.50;72111.84;6333174;22;20171;-80
2023/09/30 07:50:15;;;;;;;18.63;7.95;;;;;;;-143.21;49.89;72095.97;6330298;22;20195;-80
2023/09/30 07:52:42;;;;;;;15.73;7.00;;;;;;;-143.21;48.28;72080.13;6329380;22;20168;-81
2023/09/30 07:55:10;;;;;;;17.30;6.97;;;;;;;-143.21;48.13;72068.22;6331107;22;20164;-80
2023/09/30 07:57:41;;;;;;;15.60;7.85;;;;;;;-143.21;48.13;72058.31;6333523;22;20559;-80
2023/09/30 08:00:14;;;;;;;18.38;7.43;;;;;;;-143.21;48.34;72050.38;6333238;22;20225;-81
2023/09/30 08:02:42;;;;;;;16.65;7.22;;;;;;;-143.21;48.34;72042.44;6334862;22;20175;-84
2023/09/30 08:05:10;;;;;;;20.08;7.15;;;;;;;-143.21;47.44;72030.53;6329944;22;20453;-81
2023/09/30 08:07:37;;;;;;;18.85;6.85;;;;;;;-143.21;47.50;72026.56;6332354;22;20163;-82
2023/09/30 08:10:06;;;;;;;23.50;7.35;;;;;;;-143.21;47.31;72014.69;6335662;22;20242;-82
2023/09/30 08:12:33;;;;;;;19.88;6.65;;;;;;;-143.21;46.47;71994.84;6334199;22;20264;-82
2023/09/30 08:15:03;;;;;;;22.58;6.75;;;;;;;-143.21;46.47;71986.91;6336573;22;20159;-80
2023/09/30 08:17:30;;;;;;;16.77;7.40;;;;;;;-143.21;46.15;71975.00;6350818;22;20212;-80
2023/09/30 08:20:13;;;;;;;17.30;7.43;;;;;;;-143.21;45.49;71963.13;6334421;22;20182;-80
2023/09/30 08:23:09;;;;;;;19.88;7.60;;;;;;;-143.21;45.01;71949.25;6335101;22;20163;-81
2023/09/30 08:25:58;;;;;;;26.00;6.85;;;;;;;-143.21;44.75;71929.41;6336323;22;20217;-82
2023/09/30 08:28:25;;;;;;;18.88;7.20;;;;;;;-143.21;44.53;71907.59;6337545;22;20170;-82
2023/09/30 08:30:57;;;;;;;14.52;6.80;;;;;;;-143.21;43.66;71893.72;6330876;22;20227;-81
2023/09/30 08:33:30;;;;;;;13.23;6.18;;;;;;;-143.21;43.08;71863.97;6329737;22;20168;-81
2023/09/30 08:36:09;;;;;;;17.10;6.80;;;;;;;-143.21;42.62;71848.09;6331951;22;20156;-87
2023/09/30 08:38:44;;;;;;;21.50;7.40;;;;;;;-143.21;41.95;71816.38;6334558;22;20216;-80
2023/09/30 08:41:12;;;;;;;16.92;7.72;;;;;;;-143.21;41.93;71784.66;6327600;22;20162;-82
2023/09/30 08:43:41;;;;;;;15.65;8.32;;;;;;;-143.21;40.72;71764.81;6334546;22;20591;-81
2023/09/30 08:46:09;;;;;;;24.77;7.18;;;;;;;-143.21;40.75;71743.00;6334372;22;20164;-81
2023/09/30 08:48:36;;;;;;;20.55;7.40;;;;;;;-143.21;40.41;71709.31;6333474;22;20190;-82
2023/09/30 08:51:03;;;;;;;18.52;8.60;;;;;;;-143.21;39.86;71689.47;6334927;22;20195;-81
2023/09/30 08:53:31;;;;;;;25.27;7.85;;;;;;;-143.21;39.33;71665.69;6333756;22;20193;-81
2023/09/30 08:56:00;;;;;;;19.08;7.93;;;;;;;-143.21;37.95;71645.88;6333999;22;20171;-81
2023/09/30 08:58:29;;;;;;;18.27;8.57;;;;;;;-143.21;37.67;71616.13;6334212;22;20171;-82
2023/09/30 09:00:57;;;;;;;13.90;8.63;;;;;;;-143.21;36.34;71588.38;6334854;22;20178;-81
2023/09/30 09:03:29;;;;;;;20.50;9.30;;;;;;;-143.21;36.29;71556.63;6334337;22;20163;-81
2023/09/30 09:05:56;;;;;;;15.82;8.88;;;;;;;-143.21;36.11;71509.06;6331647;22;20626;-82
2023/09/30 09:08:23;;;;;;;16.00;8.52;;;;;;;-143.21;35.19;71467.41;6334485;22;20167;-82
2023/09/30 09:10:57;;;;;;;14.88;8.65;;;;;;;-143.21;34.60;71435.69;6333969;22;20661;-82
2023/09/30 09:13:25;;;;;;;19.55;8.73;;;;;;;-143.21;34.44;71411.91;6335362;22;20240;-81
2023/09/30 09:16:07;;;;;;;16.33;8.75;;;;;;;-143.21;33.83;71378.19;6332632;22;20573;-78
2023/09/30 09:18:36;;;;;;;17.52;8.43;;;;;;;-143.21;33.98;71346.47;6330233;22;20195;-78
2023/09/30 09:21:11;;;;;;;17.60;7.80;;;;;;;-143.21;33.86;71314.75;6329938;22;20163;-79
2023/09/30 09:23:42;;;;;;;15.38;8.27;;;;;;;-143.21;33.56;71279.06;6329952;22;20668;-79
2023/09/30 09:26:10;;;;;;;14.82;7.38;;;;;;;-143.21;32.80;71249.34;6332161;22;20522;-79
2023/09/30 09:28:38;;;;;;;19.70;7.60;;;;;;;-143.21;32.18;71217.59;6330268;22;20535;-78
2023/09/30 09:31:21;;;;;;;15.95;7.60;;;;;;;-143.21;31.43;71205.72;6330316;22;20233;-78
2023/09/30 09:33:50;;;;;;;16.98;7.45;;;;;;;-143.21;31.77;71203.72;6329786;22;20187;-78
2023/09/30 09:36:19;;;;;;;11.88;6.70;;;;;;;-143.21;31.10;71189.84;6329308;22;20171;-79
2023/09/30 09:38:47;;;;;;;20.08;6.68;;;;;;;-143.21;32.35;71164.09;6332469;22;20189;-78
2023/09/30 09:41:14;;;;;;;13.90;7.30;;;;;;;-143.21;31.04;71128.41;6329733;22;20624;-78
2023/09/30 09:43:42;;;;;;;13.73;7.35;;;;;;;-143.21;30.48;71104.59;6330179;22;20195;-78
2023/09/30 09:46:09;;;;;;;12.52;6.90;;;;;;;-143.21;30.38;71100.66;6330127;22;20163;-78
2023/09/30 09:48:37;;;;;;;16.65;7.03;;;;;;;-143.21;30.31;71080.81;6330071;22;20290;-79
2023/09/30 09:51:07;;;;;;;17.38;6.63;;;;;;;-143.21;29.93;71055.06;6330347;22;20192;-78
2023/09/30 09:53:37;;;;;;;16.58;6.80;;;;;;;-143.21;29.69;71015.41;6328778;22;20260;-79
2023/09/30 09:56:07;;;;;;;15.77;7.20;;;;;;;-143.21;29.44;70983.69;6329721;22;20176;-78
2023/09/30 09:58:34;;;;;;;14.80;6.63;;;;;;;-143.21;29.00;70963.84;6329847;22;20171;-77
2023/09/30 10:01:05;;;;;;;17.50;5.80;;;;;;;-143.21;29.13;70971.78;6331585;22;20258;-79
2023/09/30 10:03:32;;;;;;;11.48;5.60;;;;;;;-143.21;29.02;70955.94;6330287;22;20173;-78
2023/09/30 10:06:00;;;;;;;11.95;5.65;;;;;;;-143.21;28.99;70930.16;6328222;22;20629;-79
2023/09/30 10:08:34;;;;;;;13.02;5.78;;;;;;;-143.21;28.53;70916.28;6329681;22;20169;-79
2023/09/30 10:11:02;;;;;;;15.80;5.45;;;;;;;-143.21;28.83;70898.44;6330188;22;20527;-77
2023/09/30 10:13:51;;;;;;;19.20;5.90;;;;;;;-143.21;28.43;70864.75;6331717;22;20201;-79
2023/09/30 10:16:48;;;;;;;13.70;6.07;;;;;;;-143.21;28.16;70813.19;6330412;22;20167;-79
2023/09/30 10:19:17;;;;;;;10.52;5.10;;;;;;;-143.21;27.87;70767.63;6319096;22;20248;-78
2023/09/30 10:22:17;;;;;;;11.27;5.63;;;;;;;-143.21;27.88;70731.94;6329723;22;20163;-78
2023/09/30 10:24:45;;;;;;;11.95;5.70;;;;;;;-143.21;28.14;70696.25;6329585;22;20151;-78
2023/09/30 10:27:34;;;;;;;14.70;6.03;;;;;;;-143.21;26.74;70684.34;6329797;22;20254;-78
2023/09/30 10:30:10;;;;;;;17.88;5.97;;;;;;;-143.21;27.21;70690.31;6329912;22;20155;-78
2023/09/30 10:33:15;;;;;;;12.55;5.05;;;;;;;-143.21;26.37;70690.31;6331438;22;20166;-78
2023/09/30 10:35:48;;;;;;;7.07;4.88;;;;;;;-143.21;26.17;70702.19;6331212;22;20171;-77
2023/09/30 10:38:40;;;;;;;10.73;4.75;;;;;;;-143.21;26.03;70710.13;6330220;22;20177;-79
2023/09/30 10:41:09;;;;;;;8.15;4.25;;;;;;;-143.21;25.47;70696.25;6315943;22;20580;-77
2023/09/30 10:43:38;;;;;;;12.48;4.45;;;;;;;-143.21;25.42;70692.28;6329222;22;20175;-77
2023/09/30 10:46:07;;;;;;;9.43;4.47;;;;;;;-143.21;25.45;70706.16;6329348;22;20193;-77
2023/09/30 10:48:36;;;;;;;16.60;4.65;;;;;;;-143.21;25.47;70720.03;6330911;22;20214;-77
2023/09/30 10:51:12;;;;;;;13.05;4.63;;;;;;;-143.21;25.64;70694.25;6329434;22;20225;-77
2023/09/30 10:53:45;;;;;;;9.05;4.18;;;;;;;-143.21;24.80;70640.75;6329376;22;20154;-77
2023/09/30 10:56:13;;;;;;;11.25;4.28;;;;;;;-143.21;24.79;70579.31;6328845;22;20293;-77
2023/09/30 10:58:42;;;;;;;11.35;4.82;;;;;;;-143.21;24.69;70563.44;6328069;22;20167;-77
2023/09/30 11:01:09;;;;;;;9.40;4.40;;;;;;;-143.21;25.29;70521.81;6330131;22;20195;-79
2023/09/30 11:03:36;;;;;;;7.60;4.68;;;;;;;-143.21;25.11;70484.16;6327502;22;20583;-79
2023/09/30 11:06:04;;;;;;;12.05;4.63;;;;;;;-143.21;24.85;70448.47;6326581;22;20232;-78
2023/09/30 11:08:31;;;;;;;11.27;4.93;;;;;;;-143.21;24.29;70424.69;6326883;22;20190;-78
2023/09/30 11:11:00;;;;;;;9.63;4.68;;;;;;;-143.21;23.67;70456.41;6328231;22;20229;-78
2023/09/30 11:13:35;;;;;;;13.23;4.57;;;;;;;-143.21;24.24;70436.59;6328078;22;20171;-78
2023/09/30 11:16:04;;;;;;;10.10;4.60;;;;;;;-143.21;24.10;70446.50;6327480;22;20159;-78
2023/09/30 11:18:32;;;;;;;13.75;4.82;;;;;;;-143.21;24.26;70416.78;6326814;22;20999;-78
2023/09/30 11:21:08;;;;;;;12.57;4.80;;;;;;;-143.21;23.66;70418.75;6326844;22;20168;-79